sensor_id;sensor_type;location;lat;lon;timestamp;pressure;altitude;pressure_sealevel;temperature;humidity
66801;BME280;53703;50.326;19.122;2023-07-28T00:00:11;97957.54;;;19.95;50.12
66801;BME280;53703;50.326;19.122;2023-07-28T00:03:04;97956.51;;;19.94;50.05
66801;BME280;53703;50.326;19.122;2023-07-28T00:05:38;97955.52;;;19.96;50.23
66801;BME280;53703;50.326;19.122;2023-07-28T00:08:11;97948.69;;;19.95;50.05
66801;BME280;53703;50.326;19.122;2023-07-28T00:10:44;97948.21;;;19.95;50.08
66801;BME280;53703;50.326;19.122;2023-07-28T00:13:18;97949.63;;;19.94;50.23
66801;BME280;53703;50.326;19.122;2023-07-28T00:15:51;97947.80;;;19.93;50.24
66801;BME280;53703;50.326;19.122;2023-07-28T00:18:24;97945.55;;;19.96;50.49
66801;BME280;53703;50.326;19.122;2023-07-28T00:20:57;97941.79;;;19.93;50.49
66801;BME280;53703;50.326;19.122;2023-07-28T00:23:31;97942.95;;;19.90;50.59
66801;BME280;53703;50.326;19.122;2023-07-28T00:26:04;97942.85;;;19.90;50.77
66801;BME280;53703;50.326;19.122;2023-07-28T00:28:37;97942.89;;;19.94;50.69
66801;BME280;53703;50.326;19.122;2023-07-28T00:31:11;97937.91;;;19.94;50.47
66801;BME280;53703;50.326;19.122;2023-07-28T00:33:44;97935.71;;;19.95;50.44
66801;BME280;53703;50.326;19.122;2023-07-28T00:36:17;97934.08;;;19.89;50.83
66801;BME280;53703;50.326;19.122;2023-07-28T00:38:51;97926.91;;;19.85;50.91
66801;BME280;53703;50.326;19.122;2023-07-28T00:41:24;97925.33;;;19.85;50.97
66801;BME280;53703;50.326;19.122;2023-07-28T00:43:57;97923.92;;;19.87;50.72
66801;BME280;53703;50.326;19.122;2023-07-28T00:46:31;97916.80;;;19.86;50.72
66801;BME280;53703;50.326;19.122;2023-07-28T00:49:05;97915.05;;;19.85;50.60
66801;BME280;53703;50.326;19.122;2023-07-28T00:51:38;97913.08;;;19.87;50.63
66801;BME280;53703;50.326;19.122;2023-07-28T00:54:13;97913.90;;;19.90;50.43
66801;BME280;53703;50.326;19.122;2023-07-28T00:56:46;97912.77;;;19.87;50.40
66801;BME280;53703;50.326;19.122;2023-07-28T00:59:21;97918.16;;;19.89;50.65
66801;BME280;53703;50.326;19.122;2023-07-28T01:01:55;97923.23;;;19.89;50.51
66801;BME280;53703;50.326;19.122;2023-07-28T01:04:28;97926.95;;;19.97;50.60
66801;BME280;53703;50.326;19.122;2023-07-28T01:07:09;97929.22;;;19.95;50.49
66801;BME280;53703;50.326;19.122;2023-07-28T01:09:50;97921.02;;;20.04;50.54
66801;BME280;53703;50.326;19.122;2023-07-28T01:12:26;97920.73;;;20.14;50.08
66801;BME280;53703;50.326;19.122;2023-07-28T01:14:59;97919.76;;;20.12;50.55
66801;BME280;53703;50.326;19.122;2023-07-28T01:17:33;97924.92;;;20.15;50.59
66801;BME280;53703;50.326;19.122;2023-07-28T01:20:08;97919.70;;;20.15;50.55
66801;BME280;53703;50.326;19.122;2023-07-28T01:22:59;97917.63;;;20.13;50.81
66801;BME280;53703;50.326;19.122;2023-07-28T01:25:50;97924.42;;;20.20;50.33
66801;BME280;53703;50.326;19.122;2023-07-28T01:28:28;97923.38;;;20.18;50.73
66801;BME280;53703;50.326;19.122;2023-07-28T01:31:02;97922.20;;;20.22;50.90
66801;BME280;53703;50.326;19.122;2023-07-28T01:33:36;97912.73;;;20.23;51.29
66801;BME280;53703;50.326;19.122;2023-07-28T01:36:09;97905.96;;;20.28;51.57
66801;BME280;53703;50.326;19.122;2023-07-28T01:38:43;97901.88;;;20.23;51.97
66801;BME280;53703;50.326;19.122;2023-07-28T01:41:17;97894.36;;;20.12;52.61
66801;BME280;53703;50.326;19.122;2023-07-28T01:43:50;97892.63;;;20.04;52.98
66801;BME280;53703;50.326;19.122;2023-07-28T01:46:27;97889.26;;;20.08;53.01
66801;BME280;53703;50.326;19.122;2023-07-28T01:49:00;97891.48;;;20.09;53.36
66801;BME280;53703;50.326;19.122;2023-07-28T01:51:34;97891.05;;;20.14;53.24
66801;BME280;53703;50.326;19.122;2023-07-28T01:54:07;97894.77;;;20.05;53.35
66801;BME280;53703;50.326;19.122;2023-07-28T01:56:40;97891.74;;;20.12;53.36
66801;BME280;53703;50.326;19.122;2023-07-28T01:59:13;97887.97;;;20.07;53.45
66801;BME280;53703;50.326;19.122;2023-07-28T02:01:47;97883.05;;;20.13;53.21
66801;BME280;53703;50.326;19.122;2023-07-28T02:04:20;97883.34;;;20.10;53.33
66801;BME280;53703;50.326;19.122;2023-07-28T02:06:53;97886.89;;;20.09;53.52
66801;BME280;53703;50.326;19.122;2023-07-28T02:09:26;97883.06;;;20.14;53.20
66801;BME280;53703;50.326;19.122;2023-07-28T02:12:00;97881.88;;;20.05;53.42
66801;BME280;53703;50.326;19.122;2023-07-28T02:14:33;97879.61;;;20.08;53.55
66801;BME280;53703;50.326;19.122;2023-07-28T02:17:07;97875.19;;;20.02;53.65
66801;BME280;53703;50.326;19.122;2023-07-28T02:19:40;97874.05;;;19.98;53.80
66801;BME280;53703;50.326;19.122;2023-07-28T02:22:14;97871.71;;;20.02;53.71
66801;BME280;53703;50.326;19.122;2023-07-28T02:24:47;97872.15;;;20.06;53.63
66801;BME280;53703;50.326;19.122;2023-07-28T02:27:20;97869.99;;;20.05;53.70
66801;BME280;53703;50.326;19.122;2023-07-28T02:29:53;97864.44;;;19.95;54.10
66801;BME280;53703;50.326;19.122;2023-07-28T02:32:27;97865.27;;;19.94;54.01
66801;BME280;53703;50.326;19.122;2023-07-28T02:35:01;97864.37;;;19.89;54.09
66801;BME280;53703;50.326;19.122;2023-07-28T02:37:34;97863.24;;;19.87;54.18
66801;BME280;53703;50.326;19.122;2023-07-28T02:40:10;97860.58;;;19.89;53.86
66801;BME280;53703;50.326;19.122;2023-07-28T02:42:44;97858.88;;;19.86;54.13
66801;BME280;53703;50.326;19.122;2023-07-28T02:45:18;97857.19;;;19.83;54.24
66801;BME280;53703;50.326;19.122;2023-07-28T02:47:51;97864.24;;;19.84;54.51
66801;BME280;53703;50.326;19.122;2023-07-28T02:50:25;97862.64;;;19.82;54.71
66801;BME280;53703;50.326;19.122;2023-07-28T02:52:58;97861.15;;;19.83;54.66
66801;BME280;53703;50.326;19.122;2023-07-28T02:55:31;97860.11;;;19.82;54.61
66801;BME280;53703;50.326;19.122;2023-07-28T02:58:05;97860.73;;;19.81;54.59
66801;BME280;53703;50.326;19.122;2023-07-28T03:00:39;97859.02;;;19.84;54.70
66801;BME280;53703;50.326;19.122;2023-07-28T03:03:13;97857.42;;;19.82;54.93
66801;BME280;53703;50.326;19.122;2023-07-28T03:05:47;97856.34;;;19.85;54.77
66801;BME280;53703;50.326;19.122;2023-07-28T03:08:24;97859.35;;;19.85;54.86
66801;BME280;53703;50.326;19.122;2023-07-28T03:11:00;97857.02;;;19.81;55.14
66801;BME280;53703;50.326;19.122;2023-07-28T03:13:34;97851.95;;;19.80;55.30
66801;BME280;53703;50.326;19.122;2023-07-28T03:16:07;97848.67;;;19.78;55.45
66801;BME280;53703;50.326;19.122;2023-07-28T03:18:41;97847.19;;;19.78;55.27
66801;BME280;53703;50.326;19.122;2023-07-28T03:21:15;97845.36;;;19.77;55.09
66801;BME280;53703;50.326;19.122;2023-07-28T03:23:48;97839.60;;;19.79;55.22
66801;BME280;53703;50.326;19.122;2023-07-28T03:26:21;97839.50;;;19.76;55.30
66801;BME280;53703;50.326;19.122;2023-07-28T03:28:55;97838.98;;;19.74;55.36
66801;BME280;53703;50.326;19.122;2023-07-28T03:31:28;97842.42;;;19.76;55.56
66801;BME280;53703;50.326;19.122;2023-07-28T03:34:01;97850.18;;;19.78;55.38
66801;BME280;53703;50.326;19.122;2023-07-28T03:36:35;97853.57;;;19.75;55.63
66801;BME280;53703;50.326;19.122;2023-07-28T03:39:08;97851.41;;;19.73;55.81
66801;BME280;53703;50.326;19.122;2023-07-28T03:41:41;97851.30;;;19.78;55.66
66801;BME280;53703;50.326;19.122;2023-07-28T03:44:15;97848.96;;;19.74;55.71
66801;BME280;53703;50.326;19.122;2023-07-28T03:46:48;97840.38;;;19.77;55.32
66801;BME280;53703;50.326;19.122;2023-07-28T03:49:22;97843.48;;;19.79;54.99
66801;BME280;53703;50.326;19.122;2023-07-28T03:51:55;97842.98;;;19.77;54.91
66801;BME280;53703;50.326;19.122;2023-07-28T03:54:28;97841.01;;;19.77;55.08
66801;BME280;53703;50.326;19.122;2023-07-28T03:57:01;97833.14;;;19.73;54.91
66801;BME280;53703;50.326;19.122;2023-07-28T03:59:35;97836.05;;;19.71;54.94
66801;BME280;53703;50.326;19.122;2023-07-28T04:02:08;97837.77;;;19.70;54.91
66801;BME280;53703;50.326;19.122;2023-07-28T04:04:42;97836.63;;;19.72;54.77
66801;BME280;53703;50.326;19.122;2023-07-28T04:07:15;97835.64;;;19.79;54.62
66801;BME280;53703;50.326;19.122;2023-07-28T04:09:48;97833.07;;;19.75;54.75
66801;BME280;53703;50.326;19.122;2023-07-28T04:12:22;97827.83;;;19.70;55.05
66801;BME280;53703;50.326;19.122;2023-07-28T04:14:55;97827.92;;;19.72;54.83
66801;BME280;53703;50.326;19.122;2023-07-28T04:17:28;97831.66;;;19.76;54.62
66801;BME280;53703;50.326;19.122;2023-07-28T04:20:02;97827.85;;;19.75;54.70
66801;BME280;53703;50.326;19.122;2023-07-28T04:22:35;97824.86;;;19.76;54.77
66801;BME280;53703;50.326;19.122;2023-07-28T04:25:10;97819.41;;;19.76;54.59
66801;BME280;53703;50.326;19.122;2023-07-28T04:27:43;97816.48;;;19.77;54.66
66801;BME280;53703;50.326;19.122;2023-07-28T04:30:16;97816.05;;;19.82;54.55
66801;BME280;53703;50.326;19.122;2023-07-28T04:32:49;97819.91;;;19.81;54.58
66801;BME280;53703;50.326;19.122;2023-07-28T04:35:23;97818.72;;;19.79;54.68
66801;BME280;53703;50.326;19.122;2023-07-28T04:37:56;97813.30;;;19.83;54.76
66801;BME280;53703;50.326;19.122;2023-07-28T04:40:29;97812.69;;;19.87;54.57
66801;BME280;53703;50.326;19.122;2023-07-28T04:43:02;97812.42;;;19.83;54.59
66801;BME280;53703;50.326;19.122;2023-07-28T04:45:36;97810.33;;;19.79;54.76
66801;BME280;53703;50.326;19.122;2023-07-28T04:48:09;97808.84;;;19.81;54.75
66801;BME280;53703;50.326;19.122;2023-07-28T04:50:43;97807.35;;;19.81;54.75
66801;BME280;53703;50.326;19.122;2023-07-28T04:53:17;97810.35;;;19.82;54.83
66801;BME280;53703;50.326;19.122;2023-07-28T04:55:50;97814.45;;;19.80;54.98
66801;BME280;53703;50.326;19.122;2023-07-28T04:58:23;97813.21;;;19.83;54.96
66801;BME280;53703;50.326;19.122;2023-07-28T05:00:57;97813.61;;;19.83;54.75
66801;BME280;53703;50.326;19.122;2023-07-28T05:03:30;97814.39;;;19.83;54.98
66801;BME280;53703;50.326;19.122;2023-07-28T05:06:05;97815.52;;;19.85;54.89
66801;BME280;53703;50.326;19.122;2023-07-28T05:08:38;97809.40;;;19.81;55.21
66801;BME280;53703;50.326;19.122;2023-07-28T05:11:11;97812.48;;;19.79;55.24
66801;BME280;53703;50.326;19.122;2023-07-28T05:13:45;97807.29;;;19.83;55.06
66801;BME280;53703;50.326;19.122;2023-07-28T05:16:18;97808.07;;;19.83;55.41
66801;BME280;53703;50.326;19.122;2023-07-28T05:18:51;97809.98;;;19.84;55.27
66801;BME280;53703;50.326;19.122;2023-07-28T05:21:25;97808.88;;;19.84;55.29
66801;BME280;53703;50.326;19.122;2023-07-28T05:23:58;97807.77;;;19.84;55.51
66801;BME280;53703;50.326;19.122;2023-07-28T05:26:32;97807.77;;;19.86;55.44
66801;BME280;53703;50.326;19.122;2023-07-28T05:29:05;97805.52;;;19.89;55.48
66801;BME280;53703;50.326;19.122;2023-07-28T05:31:38;97807.40;;;19.89;55.66
66801;BME280;53703;50.326;19.122;2023-07-28T05:34:11;97807.52;;;19.93;55.62
66801;BME280;53703;50.326;19.122;2023-07-28T05:36:45;97810.20;;;19.91;55.82
66801;BME280;53703;50.326;19.122;2023-07-28T05:39:18;97804.10;;;19.91;55.91
66801;BME280;53703;50.326;19.122;2023-07-28T05:41:52;97800.95;;;19.93;56.12
66801;BME280;53703;50.326;19.122;2023-07-28T05:44:26;97800.30;;;19.90;56.28
66801;BME280;53703;50.326;19.122;2023-07-28T05:46:59;97800.63;;;19.91;56.37
66801;BME280;53703;50.326;19.122;2023-07-28T05:49:32;97797.78;;;19.93;56.56
66801;BME280;53703;50.326;19.122;2023-07-28T05:52:07;97795.85;;;19.96;56.33
66801;BME280;53703;50.326;19.122;2023-07-28T05:54:40;97798.17;;;19.97;56.51
66801;BME280;53703;50.326;19.122;2023-07-28T05:57:13;97795.42;;;20.00;56.49
66801;BME280;53703;50.326;19.122;2023-07-28T05:59:47;97804.20;;;20.00;56.70
66801;BME280;53703;50.326;19.122;2023-07-28T06:02:20;97805.29;;;19.98;56.88
66801;BME280;53703;50.326;19.122;2023-07-28T06:04:54;97814.70;;;19.98;57.10
66801;BME280;53703;50.326;19.122;2023-07-28T06:07:27;97816.95;;;19.94;57.35
66801;BME280;53703;50.326;19.122;2023-07-28T06:10:00;97814.40;;;19.92;57.34
66801;BME280;53703;50.326;19.122;2023-07-28T06:12:33;97818.74;;;19.91;57.64
66801;BME280;53703;50.326;19.122;2023-07-28T06:15:10;97819.23;;;19.92;57.58
66801;BME280;53703;50.326;19.122;2023-07-28T06:17:43;97817.27;;;19.95;57.52
66801;BME280;53703;50.326;19.122;2023-07-28T06:20:17;97811.63;;;19.92;57.84
66801;BME280;53703;50.326;19.122;2023-07-28T06:22:50;97811.70;;;19.92;58.01
66801;BME280;53703;50.326;19.122;2023-07-28T06:25:24;97813.34;;;19.89;58.24
66801;BME280;53703;50.326;19.122;2023-07-28T06:27:57;97822.52;;;19.89;58.29
66801;BME280;53703;50.326;19.122;2023-07-28T06:30:31;97819.43;;;19.88;58.45
66801;BME280;53703;50.326;19.122;2023-07-28T06:33:05;97822.68;;;19.89;58.56
66801;BME280;53703;50.326;19.122;2023-07-28T06:35:38;97827.59;;;19.90;58.85
66801;BME280;53703;50.326;19.122;2023-07-28T06:38:12;97828.67;;;19.88;58.96
66801;BME280;53703;50.326;19.122;2023-07-28T06:40:45;97829.23;;;19.88;59.26
66801;BME280;53703;50.326;19.122;2023-07-28T06:43:18;97836.45;;;19.89;59.77
66801;BME280;53703;50.326;19.122;2023-07-28T06:45:54;97840.89;;;19.91;60.99
66801;BME280;53703;50.326;19.122;2023-07-28T06:48:28;97840.05;;;20.02;60.46
66801;BME280;53703;50.326;19.122;2023-07-28T06:51:01;97841.30;;;20.09;60.67
66801;BME280;53703;50.326;19.122;2023-07-28T06:53:34;97844.31;;;20.09;61.06
66801;BME280;53703;50.326;19.122;2023-07-28T06:56:08;97842.23;;;20.06;61.80
66801;BME280;53703;50.326;19.122;2023-07-28T06:58:41;97842.27;;;20.01;62.63
66801;BME280;53703;50.326;19.122;2023-07-28T07:01:25;97843.59;;;19.92;63.72
66801;BME280;53703;50.326;19.122;2023-07-28T07:03:59;97839.07;;;19.90;64.28
66801;BME280;53703;50.326;19.122;2023-07-28T07:06:32;97846.70;;;19.86;64.91
66801;BME280;53703;50.326;19.122;2023-07-28T07:09:05;97849.63;;;19.87;65.05
66801;BME280;53703;50.326;19.122;2023-07-28T07:11:39;97849.59;;;19.82;65.52
66801;BME280;53703;50.326;19.122;2023-07-28T07:14:13;97853.13;;;19.80;65.94
66801;BME280;53703;50.326;19.122;2023-07-28T07:16:48;97856.38;;;19.79;66.05
66801;BME280;53703;50.326;19.122;2023-07-28T07:19:21;97854.77;;;19.70;66.91
66801;BME280;53703;50.326;19.122;2023-07-28T07:21:55;97856.09;;;19.74;66.93
66801;BME280;53703;50.326;19.122;2023-07-28T07:24:28;97862.51;;;19.83;66.50
66801;BME280;53703;50.326;19.122;2023-07-28T07:27:02;97863.54;;;19.76;67.05
66801;BME280;53703;50.326;19.122;2023-07-28T07:29:35;97865.98;;;19.74;67.15
66801;BME280;53703;50.326;19.122;2023-07-28T07:32:10;97867.43;;;19.70;67.61
66801;BME280;53703;50.326;19.122;2023-07-28T07:34:43;97869.31;;;19.67;68.06
66801;BME280;53703;50.326;19.122;2023-07-28T07:37:16;97871.20;;;19.59;68.51
66801;BME280;53703;50.326;19.122;2023-07-28T07:39:50;97870.01;;;19.58;68.65
66801;BME280;53703;50.326;19.122;2023-07-28T07:42:23;97874.11;;;19.57;68.87
66801;BME280;53703;50.326;19.122;2023-07-28T07:44:56;97870.57;;;19.59;69.05
66801;BME280;53703;50.326;19.122;2023-07-28T07:47:29;97874.95;;;19.55;69.33
66801;BME280;53703;50.326;19.122;2023-07-28T07:50:03;97874.59;;;19.58;69.21
66801;BME280;53703;50.326;19.122;2023-07-28T07:52:37;97870.23;;;19.57;69.46
66801;BME280;53703;50.326;19.122;2023-07-28T07:55:13;97872.90;;;19.54;69.52
66801;BME280;53703;50.326;19.122;2023-07-28T07:57:46;97868.02;;;19.58;69.45
66801;BME280;53703;50.326;19.122;2023-07-28T08:00:21;97869.36;;;19.64;69.21
66801;BME280;53703;50.326;19.122;2023-07-28T08:02:54;97869.62;;;19.65;69.06
66801;BME280;53703;50.326;19.122;2023-07-28T08:05:28;97870.54;;;19.63;69.71
66801;BME280;53703;50.326;19.122;2023-07-28T08:08:01;97870.80;;;19.67;69.56
66801;BME280;53703;50.326;19.122;2023-07-28T08:10:35;97873.40;;;19.65;69.59
66801;BME280;53703;50.326;19.122;2023-07-28T08:13:08;97871.67;;;19.59;70.00
66801;BME280;53703;50.326;19.122;2023-07-28T08:15:44;97879.03;;;19.52;70.52
66801;BME280;53703;50.326;19.122;2023-07-28T08:18:18;97878.62;;;19.57;70.49
66801;BME280;53703;50.326;19.122;2023-07-28T08:20:51;97880.83;;;19.57;70.55
66801;BME280;53703;50.326;19.122;2023-07-28T08:23:25;97878.63;;;19.65;70.44
66801;BME280;53703;50.326;19.122;2023-07-28T08:25:58;97874.30;;;19.68;70.45
66801;BME280;53703;50.326;19.122;2023-07-28T08:28:31;97875.35;;;19.69;70.72
66801;BME280;53703;50.326;19.122;2023-07-28T08:31:05;97873.08;;;19.73;70.68
66801;BME280;53703;50.326;19.122;2023-07-28T08:33:39;97871.16;;;19.79;70.53
66801;BME280;53703;50.326;19.122;2023-07-28T08:36:12;97868.80;;;19.80;70.89
66801;BME280;53703;50.326;19.122;2023-07-28T08:38:46;97872.06;;;19.82;70.68
66801;BME280;53703;50.326;19.122;2023-07-28T08:41:19;97871.39;;;19.87;70.82
66801;BME280;53703;50.326;19.122;2023-07-28T08:43:53;97872.16;;;19.86;70.87
66801;BME280;53703;50.326;19.122;2023-07-28T08:46:27;97873.65;;;19.84;71.43
66801;BME280;53703;50.326;19.122;2023-07-28T08:49:00;97876.91;;;19.93;70.95
66801;BME280;53703;50.326;19.122;2023-07-28T08:51:34;97874.86;;;19.85;71.81
66801;BME280;53703;50.326;19.122;2023-07-28T08:54:07;97875.84;;;19.89;71.68
66801;BME280;53703;50.326;19.122;2023-07-28T08:56:41;97873.27;;;19.93;71.35
66801;BME280;53703;50.326;19.122;2023-07-28T08:59:22;97871.23;;;19.87;71.37
66801;BME280;53703;50.326;19.122;2023-07-28T09:01:58;97867.97;;;19.84;71.73
66801;BME280;53703;50.326;19.122;2023-07-28T09:04:32;97871.26;;;19.89;71.50
66801;BME280;53703;50.326;19.122;2023-07-28T09:07:07;97873.02;;;19.90;71.05
66801;BME280;53703;50.326;19.122;2023-07-28T09:09:42;97867.52;;;19.88;70.92
66801;BME280;53703;50.326;19.122;2023-07-28T09:12:15;97871.69;;;19.84;71.19
66801;BME280;53703;50.326;19.122;2023-07-28T09:14:48;97868.16;;;19.88;71.03
66801;BME280;53703;50.326;19.122;2023-07-28T09:17:33;97874.29;;;19.92;70.52
66801;BME280;53703;50.326;19.122;2023-07-28T09:20:17;97872.31;;;19.98;70.17
66801;BME280;53703;50.326;19.122;2023-07-28T09:22:51;97874.77;;;19.99;70.11
66801;BME280;53703;50.326;19.122;2023-07-28T09:25:27;97880.45;;;19.91;70.39
66801;BME280;53703;50.326;19.122;2023-07-28T09:28:01;97880.98;;;19.88;70.50
66801;BME280;53703;50.326;19.122;2023-07-28T09:30:48;97879.38;;;19.94;70.17
66801;BME280;53703;50.326;19.122;2023-07-28T09:33:37;97880.29;;;19.98;70.34
66801;BME280;53703;50.326;19.122;2023-07-28T09:36:16;97877.17;;;19.88;70.80
66801;BME280;53703;50.326;19.122;2023-07-28T09:38:50;97876.16;;;19.90;70.64
66801;BME280;53703;50.326;19.122;2023-07-28T09:41:23;97874.89;;;19.89;70.20
66801;BME280;53703;50.326;19.122;2023-07-28T09:43:57;97869.65;;;19.87;70.67
66801;BME280;53703;50.326;19.122;2023-07-28T09:46:34;97872.15;;;19.92;70.31
66801;BME280;53703;50.326;19.122;2023-07-28T09:49:11;97874.34;;;20.02;69.99
66801;BME280;53703;50.326;19.122;2023-07-28T09:51:47;97875.61;;;20.04;69.81
66801;BME280;53703;50.326;19.122;2023-07-28T09:54:23;97877.64;;;20.11;69.74
66801;BME280;53703;50.326;19.122;2023-07-28T09:57:00;97880.41;;;20.10;69.93
66801;BME280;53703;50.326;19.122;2023-07-28T09:59:37;97881.63;;;20.14;69.65
66801;BME280;53703;50.326;19.122;2023-07-28T10:02:11;97879.23;;;20.20;69.68
66801;BME280;53703;50.326;19.122;2023-07-28T10:04:45;97881.45;;;20.22;69.88
66801;BME280;53703;50.326;19.122;2023-07-28T10:07:19;97882.36;;;20.25;69.75
66801;BME280;53703;50.326;19.122;2023-07-28T10:09:52;97880.75;;;20.32;69.68
66801;BME280;53703;50.326;19.122;2023-07-28T10:12:28;97878.48;;;20.35;69.44
66801;BME280;53703;50.326;19.122;2023-07-28T10:15:05;97874.33;;;20.31;69.50
66801;BME280;53703;50.326;19.122;2023-07-28T10:17:39;97875.33;;;20.29;69.30
66801;BME280;53703;50.326;19.122;2023-07-28T10:20:35;97879.17;;;20.33;69.04
66801;BME280;53703;50.326;19.122;2023-07-28T10:23:15;97878.23;;;20.34;68.67
66801;BME280;53703;50.326;19.122;2023-07-28T10:25:57;97876.77;;;20.30;68.45
66801;BME280;53703;50.326;19.122;2023-07-28T10:28:33;97878.27;;;20.30;68.20
66801;BME280;53703;50.326;19.122;2023-07-28T10:31:11;97883.08;;;20.37;67.87
66801;BME280;53703;50.326;19.122;2023-07-28T10:33:47;97881.42;;;20.38;67.57
66801;BME280;53703;50.326;19.122;2023-07-28T10:36:34;97886.15;;;20.36;67.58
66801;BME280;53703;50.326;19.122;2023-07-28T10:39:18;97887.89;;;20.35;67.59
66801;BME280;53703;50.326;19.122;2023-07-28T10:42:14;97890.56;;;20.42;67.27
66801;BME280;53703;50.326;19.122;2023-07-28T10:44:47;97888.16;;;20.39;67.29
66801;BME280;53703;50.326;19.122;2023-07-28T10:47:21;97894.02;;;20.38;67.48
66801;BME280;53703;50.326;19.122;2023-07-28T10:49:55;97897.73;;;20.37;67.54
66801;BME280;53703;50.326;19.122;2023-07-28T10:52:28;97903.29;;;20.41;67.30
66801;BME280;53703;50.326;19.122;2023-07-28T10:55:02;97902.73;;;20.40;67.35
66801;BME280;53703;50.326;19.122;2023-07-28T10:57:37;97901.17;;;20.45;67.07
66801;BME280;53703;50.326;19.122;2023-07-28T11:00:13;97896.56;;;20.41;67.19
66801;BME280;53703;50.326;19.122;2023-07-28T11:02:48;97901.23;;;20.40;67.23
66801;BME280;53703;50.326;19.122;2023-07-28T11:05:24;97890.97;;;20.43;66.95
66801;BME280;53703;50.326;19.122;2023-07-28T11:08:00;97892.08;;;20.44;66.97
66801;BME280;53703;50.326;19.122;2023-07-28T11:10:33;97896.20;;;20.44;66.99
66801;BME280;53703;50.326;19.122;2023-07-28T11:13:09;97893.26;;;20.44;67.04
66801;BME280;53703;50.326;19.122;2023-07-28T11:16:03;97888.52;;;20.44;66.92
66801;BME280;53703;50.326;19.122;2023-07-28T11:18:38;97890.61;;;20.50;66.76
66801;BME280;53703;50.326;19.122;2023-07-28T11:21:11;97890.61;;;20.50;67.02
66801;BME280;53703;50.326;19.122;2023-07-28T11:23:48;97888.71;;;20.50;67.04
66801;BME280;53703;50.326;19.122;2023-07-28T11:26:23;97883.46;;;20.48;66.88
66801;BME280;53703;50.326;19.122;2023-07-28T11:28:56;97885.14;;;20.49;66.96
66801;BME280;53703;50.326;19.122;2023-07-28T11:31:30;97883.56;;;20.50;66.89
66801;BME280;53703;50.326;19.122;2023-07-28T11:34:14;97890.06;;;20.51;66.71
66801;BME280;53703;50.326;19.122;2023-07-28T11:36:47;97895.15;;;20.56;66.73
66801;BME280;53703;50.326;19.122;2023-07-28T11:39:20;97894.84;;;20.55;66.84
66801;BME280;53703;50.326;19.122;2023-07-28T11:41:54;97894.77;;;20.58;66.71
66801;BME280;53703;50.326;19.122;2023-07-28T11:44:28;97895.81;;;20.58;66.88
66801;BME280;53703;50.326;19.122;2023-07-28T11:47:06;97899.90;;;20.54;67.07
66801;BME280;53703;50.326;19.122;2023-07-28T11:49:49;97900.61;;;20.54;67.10
66801;BME280;53703;50.326;19.122;2023-07-28T11:52:23;97905.11;;;20.52;67.11
66801;BME280;53703;50.326;19.122;2023-07-28T11:54:56;97908.46;;;20.55;67.04
66801;BME280;53703;50.326;19.122;2023-07-28T11:57:30;97906.80;;;20.56;66.98
66801;BME280;53703;50.326;19.122;2023-07-28T12:00:06;97900.23;;;20.57;66.86
66801;BME280;53703;50.326;19.122;2023-07-28T12:02:40;97900.81;;;20.59;66.79
66801;BME280;53703;50.326;19.122;2023-07-28T12:05:17;97893.52;;;20.61;66.72
66801;BME280;53703;50.326;19.122;2023-07-28T12:07:51;97891.77;;;20.60;66.84
66801;BME280;53703;50.326;19.122;2023-07-28T12:10:25;97884.11;;;20.61;66.72
66801;BME280;53703;50.326;19.122;2023-07-28T12:13:07;97875.30;;;20.59;66.79
66801;BME280;53703;50.326;19.122;2023-07-28T12:15:45;97875.16;;;20.62;66.78
66801;BME280;53703;50.326;19.122;2023-07-28T12:18:21;97875.25;;;20.63;66.90
66801;BME280;53703;50.326;19.122;2023-07-28T12:20:58;97880.86;;;20.61;66.88
66801;BME280;53703;50.326;19.122;2023-07-28T12:23:32;97883.33;;;20.64;66.89
66801;BME280;53703;50.326;19.122;2023-07-28T12:26:08;97886.52;;;20.65;66.89
66801;BME280;53703;50.326;19.122;2023-07-28T12:28:41;97882.88;;;20.67;66.95
66801;BME280;53703;50.326;19.122;2023-07-28T12:31:16;97875.19;;;20.66;66.88
66801;BME280;53703;50.326;19.122;2023-07-28T12:33:49;97877.33;;;20.66;67.11
66801;BME280;53703;50.326;19.122;2023-07-28T12:36:33;97878.84;;;20.67;67.21
66801;BME280;53703;50.326;19.122;2023-07-28T12:39:09;97877.08;;;20.64;67.32
66801;BME280;53703;50.326;19.122;2023-07-28T12:41:45;97875.89;;;20.64;67.37
66801;BME280;53703;50.326;19.122;2023-07-28T12:44:40;97878.52;;;20.64;67.16
66801;BME280;53703;50.326;19.122;2023-07-28T12:47:16;97872.11;;;20.69;67.09
66801;BME280;53703;50.326;19.122;2023-07-28T12:49:51;97872.20;;;20.67;67.09
66801;BME280;53703;50.326;19.122;2023-07-28T12:52:24;97874.96;;;20.68;67.04
66801;BME280;53703;50.326;19.122;2023-07-28T12:55:18;97879.97;;;20.70;67.05
66801;BME280;53703;50.326;19.122;2023-07-28T12:57:52;97882.00;;;20.67;67.09
66801;BME280;53703;50.326;19.122;2023-07-28T13:00:25;97882.64;;;20.65;67.25
66801;BME280;53703;50.326;19.122;2023-07-28T13:03:01;97885.27;;;20.68;67.19
66801;BME280;53703;50.326;19.122;2023-07-28T13:05:35;97879.95;;;20.67;67.20
66801;BME280;53703;50.326;19.122;2023-07-28T13:08:08;97875.05;;;20.68;67.25
66801;BME280;53703;50.326;19.122;2023-07-28T13:10:42;97882.73;;;20.68;67.31
66801;BME280;53703;50.326;19.122;2023-07-28T13:13:18;97886.25;;;20.74;67.14
66801;BME280;53703;50.326;19.122;2023-07-28T13:15:51;97886.95;;;20.72;67.27
66801;BME280;53703;50.326;19.122;2023-07-28T13:18:25;97886.95;;;20.73;67.24
66801;BME280;53703;50.326;19.122;2023-07-28T13:20:59;97887.48;;;20.69;67.31
66801;BME280;53703;50.326;19.122;2023-07-28T13:23:32;97884.88;;;20.70;67.54
66801;BME280;53703;50.326;19.122;2023-07-28T13:26:06;97883.45;;;20.70;67.45
66801;BME280;53703;50.326;19.122;2023-07-28T13:28:39;97882.60;;;20.74;67.22